Time;durP1;ratioP1;P1;durP2;ratioP2;P2;SDS_P1;SDS_P2;PMS_P1;PMS_P2;Temp;Humidity;BMP_temperature;BMP_pressure;BME280_temperature;BME280_humidity;BME280_pressure;Samples;Min_cycle;Max_cycle;Signal;HPM_P1;HPM_P2
2023/02/16 00:00:43;;;;;;;43.58;18.40;;;;;;;;;;4970375;28;20022;-68
2023/02/16 00:03:13;;;;;;;45.83;20.95;;;;;;;;;;4970974;28;20023;-68
2023/02/16 00:05:38;;;;;;;;;;;;;;;;;;4968048;28;20023;-70
2023/02/16 00:08:04;;;;;;;43.92;19.38;;;;;;;;;;4968351;28;19973;-69
2023/02/16 00:10:31;;;;;;;47.35;19.15;;;;;;;;;;4965757;28;20027;-68
2023/02/16 00:15:42;;;;;;;47.45;19.65;;;;;;;;;;4968731;28;20102;-68
2023/02/16 00:18:14;;;;;;;45.58;20.88;;;;;;;;;;4969620;28;20027;-67
2023/02/16 00:20:39;;;;;;;42.10;19.67;;;;;;;;;;4971197;28;20038;-67
2023/02/16 00:23:05;;;;;;;46.60;19.40;;;;;;;;;;4969748;28;20027;-70
2023/02/16 00:25:30;;;;;;;41.67;18.20;;;;;;;;;;4965418;28;20365;-68
2023/02/16 00:27:55;;;;;;;46.35;20.02;;;;;;;;;;4967641;28;20274;-68
2023/02/16 00:30:21;;;;;;;44.67;18.23;;;;;;;;;;4971150;28;20547;-68
2023/02/16 00:32:46;;;;;;;43.05;19.55;;;;;;;;;;4967502;28;20266;-68
2023/02/16 00:35:12;;;;;;;40.00;18.45;;;;;;;;;;4970949;28;20027;-69
2023/02/16 00:37:37;;;;;;;45.30;18.67;;;;;;;;;;4971691;28;20030;-67
2023/02/16 00:40:03;;;;;;;47.63;18.55;;;;;;;;;;4970149;28;20030;-68
2023/02/16 00:42:30;;;;;;;49.13;19.90;;;;;;;;;;4970144;28;20802;-68
2023/02/16 00:44:56;;;;;;;39.65;18.05;;;;;;;;;;4970389;28;20025;-68
2023/02/16 00:47:21;;;;;;;48.72;20.33;;;;;;;;;;4973472;28;20084;-69
2023/02/16 00:49:47;;;;;;;41.03;17.80;;;;;;;;;;4972452;28;20019;-67
2023/02/16 00:52:21;;;;;;;48.15;20.60;;;;;;;;;;4970897;28;20515;-67
2023/02/16 00:54:46;;;;;;;39.97;18.10;;;;;;;;;;4972112;28;20388;-67
2023/02/16 00:57:15;;;;;;;45.63;17.43;;;;;;;;;;4972234;28;20027;-68
2023/02/16 00:59:40;;;;;;;49.50;20.17;;;;;;;;;;4970158;28;20286;-67
2023/02/16 01:02:05;;;;;;;43.20;19.35;;;;;;;;;;4973480;28;20073;-67
2023/02/16 01:04:31;;;;;;;50.30;21.37;;;;;;;;;;4975227;28;20050;-67
2023/02/16 01:12:24;;;;;;;48.08;19.13;;;;;;;;;;4965191;28;21673;-67
2023/02/16 01:14:50;;;;;;;49.60;19.08;;;;;;;;;;4970934;28;20035;-67
2023/02/16 01:17:16;;;;;;;45.40;19.90;;;;;;;;;;4971559;28;20043;-67
2023/02/16 01:19:41;;;;;;;44.92;19.00;;;;;;;;;;4971162;28;20029;-67
2023/02/16 01:22:06;;;;;;;39.85;17.85;;;;;;;;;;4972526;28;20022;-67
2023/02/16 01:24:31;;;;;;;43.97;18.70;;;;;;;;;;4970917;28;20046;-68
2023/02/16 01:26:56;;;;;;;51.60;21.38;;;;;;;;;;4975263;28;20030;-68
2023/02/16 01:29:22;;;;;;;45.17;19.83;;;;;;;;;;4974880;28;20050;-68
2023/02/16 01:31:47;;;;;;;45.17;19.60;;;;;;;;;;4974495;28;20023;-68
2023/02/16 01:34:12;;;;;;;49.83;19.40;;;;;;;;;;4958972;28;20563;-68
2023/02/16 01:36:42;;;;;;;49.72;20.50;;;;;;;;;;4974349;28;20030;-68
2023/02/16 01:39:10;;;;;;;48.20;20.67;;;;;;;;;;4972277;28;20029;-67
2023/02/16 01:41:53;;;;;;;43.15;19.13;;;;;;;;;;4975558;28;20262;-68
2023/02/16 01:44:21;;;;;;;48.25;20.88;;;;;;;;;;4970940;28;20015;-68
2023/02/16 01:46:59;;;;;;;46.30;17.88;;;;;;;;;;4975002;28;20015;-69
2023/02/16 01:49:25;;;;;;;45.90;21.80;;;;;;;;;;4975985;28;20050;-68
2023/02/16 01:51:54;;;;;;;51.97;19.63;;;;;;;;;;4974933;28;20031;-67
2023/02/16 01:54:23;;;;;;;48.92;20.58;;;;;;;;;;4974473;28;20471;-68
2023/02/16 01:56:57;;;;;;;51.28;20.27;;;;;;;;;;4972715;28;20385;-69
2023/02/16 01:59:38;;;;;;;45.50;19.63;;;;;;;;;;4975315;28;20023;-68
2023/02/16 02:02:07;;;;;;;43.50;19.38;;;;;;;;;;4972648;28;20814;-67
2023/02/16 02:07:20;;;;;;;44.33;18.10;;;;;;;;;;4972973;28;20368;-68
2023/02/16 02:09:50;;;;;;;54.45;21.77;;;;;;;;;;4974210;28;20034;-67
2023/02/16 02:12:26;;;;;;;53.53;19.15;;;;;;;;;;4972786;28;20022;-67
2023/02/16 02:14:51;;;;;;;49.42;21.65;;;;;;;;;;4974770;28;20396;-67
2023/02/16 02:17:18;;;;;;;46.88;21.02;;;;;;;;;;4974035;28;20027;-70
2023/02/16 02:19:49;;;;;;;46.78;19.25;;;;;;;;;;4973653;28;20460;-67
2023/02/16 02:25:13;;;;;;;44.08;18.45;;;;;;;;;;4973180;28;20029;-67
2023/02/16 02:28:00;;;;;;;46.33;18.60;;;;;;;;;;4974962;28;20026;-70
2023/02/16 02:30:26;;;;;;;41.03;18.77;;;;;;;;;;4974041;28;20038;-67
2023/02/16 02:32:51;;;;;;;43.50;19.05;;;;;;;;;;4974053;28;20027;-68
2023/02/16 02:35:22;;;;;;;46.15;19.73;;;;;;;;;;4974955;28;20023;-67
2023/02/16 02:37:56;;;;;;;52.20;20.60;;;;;;;;;;4973722;28;20270;-68
2023/02/16 02:40:33;;;;;;;48.00;18.83;;;;;;;;;;4952275;28;20025;-68
2023/02/16 02:43:17;;;;;;;50.67;20.55;;;;;;;;;;4969779;28;20026;-68
2023/02/16 02:45:45;;;;;;;46.92;19.50;;;;;;;;;;4973963;28;20106;-67
2023/02/16 02:48:11;;;;;;;50.45;19.23;;;;;;;;;;4974809;28;20031;-67
2023/02/16 02:51:27;;;;;;;49.33;19.50;;;;;;;;;;4970521;28;20025;-67
2023/02/16 02:53:27;;;;;;;47.80;20.95;;;;;;;;;;4971923;28;20280;-68
2023/02/16 03:01:21;;;;;;;50.00;20.30;;;;;;;;;;4971697;28;20090;-67
2023/02/16 03:03:48;;;;;;;47.10;20.27;;;;;;;;;;4974027;28;20019;-67
2023/02/16 03:06:25;;;;;;;52.85;20.80;;;;;;;;;;4975463;28;20033;-68
2023/02/16 03:08:53;;;;;;;49.78;20.15;;;;;;;;;;4969270;28;20097;-67
2023/02/16 03:14:23;;;;;;;53.95;21.17;;;;;;;;;;4967802;28;20169;-67
2023/02/16 03:30:42;;;;;;;47.20;18.75;;;;;;;;;;4974170;28;20408;-69
2023/02/16 03:33:07;;;;;;;48.47;19.10;;;;;;;;;;4975428;28;20023;-68
2023/02/16 03:35:33;;;;;;;54.73;21.87;;;;;;;;;;4976422;28;20030;-67
2023/02/16 03:37:59;;;;;;;45.33;18.50;;;;;;;;;;4972317;28;20266;-67
2023/02/16 03:40:27;;;;;;;52.60;20.00;;;;;;;;;;4976880;28;20027;-67
2023/02/16 03:42:55;;;;;;;49.85;17.65;;;;;;;;;;4974355;28;20274;-67
2023/02/16 03:45:20;;;;;;;49.95;20.65;;;;;;;;;;4975040;28;20018;-70
2023/02/16 03:47:46;;;;;;;55.97;22.50;;;;;;;;;;4973097;28;20114;-67
2023/02/16 03:50:11;;;;;;;52.07;21.30;;;;;;;;;;4974652;28;20034;-67
2023/02/16 03:52:36;;;;;;;46.13;18.33;;;;;;;;;;4974532;28;20277;-67
2023/02/16 03:55:01;;;;;;;52.03;21.05;;;;;;;;;;4972634;28;20288;-67
2023/02/16 03:57:26;;;;;;;57.35;22.35;;;;;;;;;;4975019;28;20754;-68
2023/02/16 03:59:54;;;;;;;54.95;23.10;;;;;;;;;;4968099;28;20038;-67
2023/02/16 04:02:20;;;;;;;50.95;21.83;;;;;;;;;;4971864;28;20302;-67
2023/02/16 04:04:45;;;;;;;51.13;21.42;;;;;;;;;;4971525;28;20082;-67
2023/02/16 04:07:10;;;;;;;59.60;21.90;;;;;;;;;;4970526;28;20456;-70
2023/02/16 04:09:35;;;;;;;54.05;22.52;;;;;;;;;;4972595;28;20019;-68
2023/02/16 04:14:44;;;;;;;52.28;21.23;;;;;;;;;;4975255;28;20790;-68
2023/02/16 04:17:10;;;;;;;55.00;22.42;;;;;;;;;;4975818;28;20030;-67
2023/02/16 04:19:35;;;;;;;51.97;20.58;;;;;;;;;;4975911;28;20289;-67
2023/02/16 04:22:00;;;;;;;56.65;20.77;;;;;;;;;;4972487;28;20420;-67
2023/02/16 04:24:25;;;;;;;48.97;20.40;;;;;;;;;;4976868;28;20266;-67
2023/02/16 04:26:50;;;;;;;54.70;22.17;;;;;;;;;;4973701;28;20262;-67
2023/02/16 04:29:15;;;;;;;56.63;21.77;;;;;;;;;;4973929;28;20281;-67
2023/02/16 04:31:41;;;;;;;53.53;21.47;;;;;;;;;;4974312;28;20030;-67
2023/02/16 04:34:06;;;;;;;54.43;22.27;;;;;;;;;;4975105;28;20772;-67
2023/02/16 04:36:32;;;;;;;47.13;21.03;;;;;;;;;;4978524;28;20285;-68
2023/02/16 04:38:57;;;;;;;57.67;22.52;;;;;;;;;;4980639;28;20301;-67
2023/02/16 04:41:22;;;;;;;49.20;21.00;;;;;;;;;;4980809;28;20031;-67
2023/02/16 04:43:47;;;;;;;55.53;22.13;;;;;;;;;;4974405;28;20022;-70
2023/02/16 04:46:13;;;;;;;47.47;21.17;;;;;;;;;;4978346;28;20022;-68
2023/02/16 04:48:38;;;;;;;50.92;22.90;;;;;;;;;;4977725;28;20270;-68
2023/02/16 04:51:03;;;;;;;67.50;23.87;;;;;;;;;;4978356;28;20766;-67
2023/02/16 04:53:28;;;;;;;56.40;21.98;;;;;;;;;;4976994;28;20324;-69
2023/02/16 04:55:54;;;;;;;53.70;21.00;;;;;;;;;;4976398;28;20113;-67
2023/02/16 04:58:19;;;;;;;49.20;20.77;;;;;;;;;;4980759;28;20289;-69
2023/02/16 05:00:44;;;;;;;57.47;22.53;;;;;;;;;;4972948;28;20089;-67
2023/02/16 05:03:09;;;;;;;59.67;23.67;;;;;;;;;;4980593;28;20276;-68
2023/02/16 05:05:35;;;;;;;49.40;20.45;;;;;;;;;;4980052;28;20022;-68
2023/02/16 05:08:01;;;;;;;55.53;21.98;;;;;;;;;;4978666;28;20024;-67
2023/02/16 05:10:26;;;;;;;55.72;22.27;;;;;;;;;;4977391;28;20030;-68
2023/02/16 05:15:35;;;;;;;57.65;22.35;;;;;;;;;;4975676;28;20077;-68
2023/02/16 05:18:00;;;;;;;50.83;22.17;;;;;;;;;;4977102;28;20015;-68
2023/02/16 05:21:29;;;;;;;61.85;21.38;;;;;;;;;;4979146;28;20110;-67
2023/02/16 05:23:11;;;;;;;52.63;23.05;;;;;;;;;;4975008;28;20074;-67
2023/02/16 05:25:36;;;;;;;58.53;22.93;;;;;;;;;;4976702;28;20022;-67
2023/02/16 05:28:01;;;;;;;51.67;21.73;;;;;;;;;;4979379;28;20290;-68
2023/02/16 05:30:26;;;;;;;52.40;20.52;;;;;;;;;;4979897;28;20467;-70
2023/02/16 05:32:51;;;;;;;58.90;22.23;;;;;;;;;;4974879;28;20266;-69
2023/02/16 05:35:16;;;;;;;52.78;21.80;;;;;;;;;;4977782;28;20354;-67
2023/02/16 05:37:41;;;;;;;52.60;22.17;;;;;;;;;;4980578;28;20265;-68
2023/02/16 05:40:07;;;;;;;55.47;21.97;;;;;;;;;;4979159;28;20282;-67
2023/02/16 05:42:32;;;;;;;54.75;23.33;;;;;;;;;;4975782;28;21909;-67
2023/02/16 05:44:57;;;;;;;54.65;22.25;;;;;;;;;;4979357;28;20034;-67
2023/02/16 05:47:22;;;;;;;63.60;24.23;;;;;;;;;;4980426;28;20333;-67
2023/02/16 05:49:48;;;;;;;58.67;22.08;;;;;;;;;;4979755;28;20282;-67
2023/02/16 05:52:13;;;;;;;54.90;22.43;;;;;;;;;;4982073;28;20033;-67
2023/02/16 05:54:38;;;;;;;50.28;22.25;;;;;;;;;;4972980;28;20621;-68
2023/02/16 05:57:03;;;;;;;60.80;24.17;;;;;;;;;;4972472;28;20278;-67
2023/02/16 05:59:28;;;;;;;59.07;21.60;;;;;;;;;;4978330;28;20395;-69
2023/02/16 06:01:53;;;;;;;55.17;21.88;;;;;;;;;;4975541;28;20262;-68
2023/02/16 06:04:19;;;;;;;55.60;21.88;;;;;;;;;;4974055;28;20018;-69
2023/02/16 06:06:44;;;;;;;55.15;22.42;;;;;;;;;;4972326;28;20027;-67
2023/02/16 06:09:10;;;;;;;55.30;22.30;;;;;;;;;;4960332;28;20026;-67
2023/02/16 06:11:35;;;;;;;58.50;21.38;;;;;;;;;;4975732;28;20281;-68
2023/02/16 06:14:01;;;;;;;52.42;22.08;;;;;;;;;;4974834;28;20031;-67
2023/02/16 06:16:27;;;;;;;61.78;21.92;;;;;;;;;;4972641;28;20415;-68
2023/02/16 06:18:53;;;;;;;56.78;22.63;;;;;;;;;;4969394;28;20025;-67
2023/02/16 06:21:18;;;;;;;65.13;22.10;;;;;;;;;;4970389;28;20022;-68
2023/02/16 06:23:44;;;;;;;55.40;23.40;;;;;;;;;;4974761;28;20034;-67
2023/02/16 06:26:09;;;;;;;51.88;20.92;;;;;;;;;;4973371;28;20015;-68
2023/02/16 06:28:34;;;;;;;58.92;22.35;;;;;;;;;;4972834;28;20066;-67
2023/02/16 06:30:59;;;;;;;51.47;22.10;;;;;;;;;;4976997;28;20672;-68
2023/02/16 06:33:24;;;;;;;59.67;23.40;;;;;;;;;;4975696;28;20299;-67
2023/02/16 06:35:49;;;;;;;67.37;26.17;;;;;;;;;;4967835;28;20290;-69
2023/02/16 06:38:14;;;;;;;59.67;24.90;;;;;;;;;;4973192;28;20270;-67
2023/02/16 06:40:40;;;;;;;59.55;23.13;;;;;;;;;;4973057;28;20554;-68
2023/02/16 06:43:05;;;;;;;58.57;23.83;;;;;;;;;;4968037;28;20286;-68
2023/02/16 06:45:30;;;;;;;54.25;22.23;;;;;;;;;;4961134;28;20340;-70
2023/02/16 06:47:55;;;;;;;65.57;23.57;;;;;;;;;;4969399;28;20109;-67
2023/02/16 06:50:20;;;;;;;61.77;24.13;;;;;;;;;;4965067;28;20368;-68
2023/02/16 06:52:46;;;;;;;65.13;24.58;;;;;;;;;;4969244;28;20352;-67
2023/02/16 06:55:11;;;;;;;61.88;25.80;;;;;;;;;;4965541;28;20472;-67
2023/02/16 06:57:36;;;;;;;79.90;28.33;;;;;;;;;;4974032;28;20305;-70
2023/02/16 07:00:03;;;;;;;65.32;26.48;;;;;;;;;;4968606;28;20055;-67
2023/02/16 07:02:29;;;;;;;79.78;29.85;;;;;;;;;;4954701;28;20033;-69
2023/02/16 07:04:54;;;;;;;72.47;28.03;;;;;;;;;;4972376;28;20027;-67
2023/02/16 07:07:19;;;;;;;68.68;27.67;;;;;;;;;;4971217;28;20290;-68
2023/02/16 07:09:44;;;;;;;65.63;26.57;;;;;;;;;;4973933;28;20022;-67
2023/02/16 07:12:09;;;;;;;67.37;26.27;;;;;;;;;;4972033;28;20814;-68
2023/02/16 07:14:35;;;;;;;63.43;25.63;;;;;;;;;;4955442;28;20376;-68
2023/02/16 07:17:03;;;;;;;63.80;26.40;;;;;;;;;;4971713;28;20329;-68
2023/02/16 07:19:31;;;;;;;66.05;24.58;;;;;;;;;;4975095;28;20023;-68
2023/02/16 07:21:56;;;;;;;68.32;27.15;;;;;;;;;;4968271;28;20023;-68
2023/02/16 07:24:21;;;;;;;55.72;24.55;;;;;;;;;;4976740;28;20033;-69
2023/02/16 07:26:46;;;;;;;60.05;24.27;;;;;;;;;;4974016;28;20015;-68
2023/02/16 07:29:11;;;;;;;51.33;23.95;;;;;;;;;;4974903;28;20329;-68
2023/02/16 07:31:37;;;;;;;55.97;24.27;;;;;;;;;;4972266;28;20094;-68
2023/02/16 07:34:02;;;;;;;52.03;23.83;;;;;;;;;;4975471;28;20325;-68
2023/02/16 07:36:27;;;;;;;51.13;22.13;;;;;;;;;;4973819;28;20285;-68
2023/02/16 07:38:53;;;;;;;37.27;15.77;;;;;;;;;;4965475;28;20301;-68
2023/02/16 07:41:19;;;;;;;50.92;21.05;;;;;;;;;;4969860;28;20349;-69
2023/02/16 07:43:44;;;;;;;37.17;14.90;;;;;;;;;;4970448;28;20076;-69
2023/02/16 07:46:09;;;;;;;52.73;19.50;;;;;;;;;;4969398;28;20022;-69
2023/02/16 07:48:34;;;;;;;45.13;18.48;;;;;;;;;;4966833;28;20282;-70
2023/02/16 07:51:00;;;;;;;32.90;13.30;;;;;;;;;;4964538;28;20038;-71
2023/02/16 07:53:25;;;;;;;26.17;10.30;;;;;;;;;;4965484;28;20572;-70
2023/02/16 07:55:50;;;;;;;49.47;17.48;;;;;;;;;;4967449;28;20022;-69
2023/02/16 07:58:26;;;;;;;53.65;21.42;;;;;;;;;;4972623;28;20274;-68
2023/02/16 08:00:52;;;;;;;43.22;15.38;;;;;;;;;;4969092;28;20262;-69
2023/02/16 08:03:18;;;;;;;47.13;21.40;;;;;;;;;;4973275;28;20023;-68
2023/02/16 08:05:43;;;;;;;40.80;15.57;;;;;;;;;;4975284;28;20042;-69
2023/02/16 08:08:08;;;;;;;43.33;15.68;;;;;;;;;;4973214;28;20381;-68
2023/02/16 08:10:33;;;;;;;35.90;11.82;;;;;;;;;;4950597;28;20285;-68
2023/02/16 08:12:58;;;;;;;20.63;9.87;;;;;;;;;;4973415;28;20094;-68
2023/02/16 08:15:23;;;;;;;34.40;10.60;;;;;;;;;;4975354;28;20306;-68
2023/02/16 08:17:49;;;;;;;39.90;14.80;;;;;;;;;;4974408;28;20747;-68
2023/02/16 08:20:14;;;;;;;46.08;19.00;;;;;;;;;;4971234;28;20033;-68
2023/02/16 08:22:39;;;;;;;40.95;15.23;;;;;;;;;;4978534;28;20384;-68
2023/02/16 08:25:04;;;;;;;37.50;16.15;;;;;;;;;;4977081;28;20011;-68
2023/02/16 08:27:29;;;;;;;38.13;15.60;;;;;;;;;;4976564;28;20479;-69
2023/02/16 08:29:55;;;;;;;34.13;12.87;;;;;;;;;;4958205;28;20019;-68
2023/02/16 08:32:20;;;;;;;52.05;19.83;;;;;;;;;;4971541;28;20274;-69
2023/02/16 08:34:45;;;;;;;49.45;19.40;;;;;;;;;;4979568;28;20292;-68
2023/02/16 08:37:11;;;;;;;29.90;13.48;;;;;;;;;;4971105;28;20388;-69
2023/02/16 08:39:36;;;;;;;33.28;14.20;;;;;;;;;;4979927;28;20058;-68
2023/02/16 08:42:02;;;;;;;40.33;16.00;;;;;;;;;;4970939;28;20018;-67
2023/02/16 08:44:28;;;;;;;52.47;19.67;;;;;;;;;;4976636;28;20022;-67
2023/02/16 08:46:55;;;;;;;47.55;17.58;;;;;;;;;;4980119;28;20041;-68
2023/02/16 08:49:22;;;;;;;46.03;18.15;;;;;;;;;;4978890;28;20113;-67
2023/02/16 08:51:49;;;;;;;43.50;15.85;;;;;;;;;;4972675;28;20446;-67
2023/02/16 08:54:23;;;;;;;46.90;18.98;;;;;;;;;;4973174;28;20580;-68
2023/02/16 08:56:48;;;;;;;42.10;16.70;;;;;;;;;;4971168;28;20026;-67
2023/02/16 08:59:17;;;;;;;39.15;15.95;;;;;;;;;;4972973;28;20361;-67
2023/02/16 09:01:43;;;;;;;29.95;13.02;;;;;;;;;;4978053;28;20026;-67
2023/02/16 09:04:08;;;;;;;35.30;13.45;;;;;;;;;;4978604;28;20480;-67
2023/02/16 09:06:38;;;;;;;40.17;16.80;;;;;;;;;;4980507;28;20065;-67
2023/02/16 09:09:03;;;;;;;39.58;13.07;;;;;;;;;;4970530;28;20638;-67
2023/02/16 09:11:29;;;;;;;42.20;17.52;;;;;;;;;;4975979;28;20087;-67
2023/02/16 09:13:54;;;;;;;43.45;17.52;;;;;;;;;;4975718;28;20073;-67
2023/02/16 09:16:21;;;;;;;30.20;13.50;;;;;;;;;;4976406;28;20027;-68
2023/02/16 09:18:47;;;;;;;39.65;17.25;;;;;;;;;;4978947;28;20289;-67
2023/02/16 09:21:14;;;;;;;38.13;14.32;;;;;;;;;;4982821;28;20026;-67
2023/02/16 09:23:40;;;;;;;31.83;15.02;;;;;;;;;;4984696;28;20034;-68
2023/02/16 09:26:06;;;;;;;47.67;17.33;;;;;;;;;;4981826;28;20011;-69
2023/02/16 09:28:32;;;;;;;37.83;16.52;;;;;;;;;;4986079;28;20022;-68
2023/02/16 09:30:58;;;;;;;42.85;13.38;;;;;;;;;;4984616;28;20093;-67
2023/02/16 09:33:24;;;;;;;18.58;8.80;;;;;;;;;;4986618;28;20111;-67
2023/02/16 09:35:49;;;;;;;38.83;17.17;;;;;;;;;;4981749;28;20114;-67
2023/02/16 09:38:16;;;;;;;50.87;21.43;;;;;;;;;;4972476;28;20023;-68
2023/02/16 09:40:42;;;;;;;30.23;13.57;;;;;;;;;;4979347;28;20269;-68
2023/02/16 09:43:11;;;;;;;45.55;20.55;;;;;;;;;;4981616;28;20019;-67
2023/02/16 09:45:41;;;;;;;55.50;17.77;;;;;;;;;;4981725;28;20022;-68
2023/02/16 09:48:15;;;;;;;42.72;18.98;;;;;;;;;;4978829;28;20019;-69
2023/02/16 09:50:41;;;;;;;40.15;15.93;;;;;;;;;;4978359;28;20690;-69
2023/02/16 09:53:27;;;;;;;31.80;14.32;;;;;;;;;;4980238;28;20074;-68
2023/02/16 09:55:58;;;;;;;36.10;13.55;;;;;;;;;;4981683;28;20026;-67
2023/02/16 09:58:27;;;;;;;31.40;12.57;;;;;;;;;;4964144;28;20039;-67
2023/02/16 10:00:56;;;;;;;35.78;14.23;;;;;;;;;;4977418;28;20026;-67
2023/02/16 10:03:22;;;;;;;44.75;16.45;;;;;;;;;;4982529;28;20038;-69
2023/02/16 10:05:50;;;;;;;44.72;17.80;;;;;;;;;;4979495;28;20019;-69
2023/02/16 10:08:23;;;;;;;22.85;11.05;;;;;;;;;;4983085;28;20045;-69
2023/02/16 10:10:52;;;;;;;39.90;16.15;;;;;;;;;;4974172;28;20022;-68
2023/02/16 10:13:37;;;;;;;34.22;15.90;;;;;;;;;;4983287;28;20054;-67
2023/02/16 10:16:03;;;;;;;33.13;14.50;;;;;;;;;;4978362;28;20041;-68
2023/02/16 10:18:32;;;;;;;47.80;20.90;;;;;;;;;;4980958;28;20037;-68
2023/02/16 10:20:59;;;;;;;32.13;14.68;;;;;;;;;;4976956;28;20038;-68
2023/02/16 10:23:33;;;;;;;27.15;10.52;;;;;;;;;;4970669;28;20026;-67
2023/02/16 10:26:04;;;;;;;21.50;11.15;;;;;;;;;;4969896;28;20034;-69
2023/02/16 10:28:35;;;;;;;27.08;12.57;;;;;;;;;;4975036;28;20029;-70
2023/02/16 10:31:11;;;;;;;42.03;18.20;;;;;;;;;;4969587;28;20073;-70
2023/02/16 10:33:39;;;;;;;41.60;18.30;;;;;;;;;;4981444;28;20030;-68
2023/02/16 10:36:13;;;;;;;24.75;10.10;;;;;;;;;;4970761;28;20054;-69
2023/02/16 10:38:50;;;;;;;22.63;9.57;;;;;;;;;;4972177;28;20351;-68
2023/02/16 10:41:21;;;;;;;46.65;19.42;;;;;;;;;;4973859;28;20015;-68
2023/02/16 10:43:49;;;;;;;39.90;18.80;;;;;;;;;;4974571;28;20025;-68
2023/02/16 10:46:18;;;;;;;39.97;18.23;;;;;;;;;;4975916;28;20174;-68
2023/02/16 10:48:45;;;;;;;39.72;17.98;;;;;;;;;;4972884;28;20022;-67
2023/02/16 10:51:15;;;;;;;24.17;8.80;;;;;;;;;;4974856;28;20129;-68
2023/02/16 10:53:51;;;;;;;35.50;16.30;;;;;;;;;;4975550;28;20030;-68
2023/02/16 10:56:22;;;;;;;38.42;16.05;;;;;;;;;;4974027;28;20027;-67
2023/02/16 10:58:47;;;;;;;40.97;17.23;;;;;;;;;;4976511;28;20019;-70
2023/02/16 11:01:15;;;;;;;40.67;17.33;;;;;;;;;;4969256;28;20043;-68
2023/02/16 11:03:45;;;;;;;47.90;20.83;;;;;;;;;;4971047;28;20375;-67
2023/02/16 11:06:14;;;;;;;46.22;21.02;;;;;;;;;;4972867;28;20019;-67
2023/02/16 11:08:55;;;;;;;42.03;19.05;;;;;;;;;;4961029;28;20550;-69
2023/02/16 11:11:21;;;;;;;34.72;17.23;;;;;;;;;;4982524;28;20023;-67
2023/02/16 11:13:48;;;;;;;42.40;17.17;;;;;;;;;;4982828;28;20032;-68
2023/02/16 11:16:20;;;;;;;44.33;17.90;;;;;;;;;;4978705;28;20447;-67
2023/02/16 11:18:54;;;;;;;43.50;19.17;;;;;;;;;;4982997;28;20023;-67
2023/02/16 11:21:20;;;;;;;47.05;19.42;;;;;;;;;;4980531;28;20110;-68
2023/02/16 11:23:56;;;;;;;36.60;18.13;;;;;;;;;;4984281;28;20101;-68
2023/02/16 11:26:23;;;;;;;38.63;16.75;;;;;;;;;;4980060;28;20011;-67
2023/02/16 11:28:49;;;;;;;34.10;14.57;;;;;;;;;;4978920;28;20034;-68
2023/02/16 11:31:26;;;;;;;43.70;19.60;;;;;;;;;;4972190;28;20081;-69
2023/02/16 11:34:02;;;;;;;45.15;20.27;;;;;;;;;;4975877;28;20102;-67
2023/02/16 11:36:41;;;;;;;45.05;19.30;;;;;;;;;;4977130;28;20435;-68
2023/02/16 11:39:06;;;;;;;44.40;17.55;;;;;;;;;;4971018;28;20026;-68
2023/02/16 11:41:33;;;;;;;39.92;17.13;;;;;;;;;;4969054;28;20027;-68
2023/02/16 11:44:00;;;;;;;46.83;19.27;;;;;;;;;;4976070;28;20038;-68
2023/02/16 11:46:25;;;;;;;42.05;19.45;;;;;;;;;;4976600;28;20431;-70
2023/02/16 11:48:51;;;;;;;31.67;12.65;;;;;;;;;;4975561;28;20081;-69
2023/02/16 11:51:28;;;;;;;40.40;16.52;;;;;;;;;;4968681;28;20025;-70
2023/02/16 11:53:59;;;;;;;33.38;15.10;;;;;;;;;;4975733;28;20030;-68
2023/02/16 11:56:26;;;;;;;45.25;15.52;;;;;;;;;;4972971;28;20078;-68
2023/02/16 11:59:06;;;;;;;42.03;16.48;;;;;;;;;;4971308;28;20027;-68
2023/02/16 12:01:47;;;;;;;40.45;15.68;;;;;;;;;;4966605;28;20022;-68
2023/02/16 12:04:31;;;;;;;22.95;11.43;;;;;;;;;;4969842;28;20550;-69
2023/02/16 12:06:56;;;;;;;30.33;12.93;;;;;;;;;;4969014;28;20054;-67
2023/02/16 12:09:37;;;;;;;36.15;16.40;;;;;;;;;;4972714;28;20022;-69
2023/02/16 12:12:12;;;;;;;33.60;16.17;;;;;;;;;;4969909;28;20031;-68
2023/02/16 12:14:40;;;;;;;36.33;16.23;;;;;;;;;;4971285;28;20049;-68
2023/02/16 12:17:11;;;;;;;36.25;16.65;;;;;;;;;;4972576;28;20030;-69
2023/02/16 12:19:42;;;;;;;39.67;18.08;;;;;;;;;;4975641;28;20371;-67
2023/02/16 12:22:13;;;;;;;42.40;19.65;;;;;;;;;;4974486;28;20030;-68
2023/02/16 12:24:57;;;;;;;37.85;17.85;;;;;;;;;;4977005;28;20125;-68
2023/02/16 12:27:40;;;;;;;41.13;16.75;;;;;;;;;;4971083;28;20061;-68
2023/02/16 12:30:26;;;;;;;36.38;18.75;;;;;;;;;;4974295;28;20019;-69
2023/02/16 12:33:18;;;;;;;35.17;16.35;;;;;;;;;;4973102;28;20377;-68
2023/02/16 12:35:54;;;;;;;36.53;16.95;;;;;;;;;;4961479;28;20065;-68
2023/02/16 12:38:37;;;;;;;40.95;20.15;;;;;;;;;;4971630;28;20026;-68
2023/02/16 12:41:05;;;;;;;38.53;18.58;;;;;;;;;;4976808;28;20025;-68
2023/02/16 12:43:37;;;;;;;40.00;19.10;;;;;;;;;;4974461;28;20027;-68
2023/02/16 12:46:05;;;;;;;38.45;19.15;;;;;;;;;;4976742;28;20037;-68
2023/02/16 12:48:57;;;;;;;34.92;17.45;;;;;;;;;;4974079;28;20432;-68
2023/02/16 12:51:25;;;;;;;41.58;20.05;;;;;;;;;;4973803;28;20488;-68
2023/02/16 12:53:59;;;;;;;32.65;14.80;;;;;;;;;;4978962;28;20030;-68
2023/02/16 12:56:31;;;;;;;51.88;22.50;;;;;;;;;;4977388;28;20029;-68
2023/02/16 12:59:12;;;;;;;40.90;19.15;;;;;;;;;;4975919;28;20027;-68
2023/02/16 13:01:37;;;;;;;;;;;;;;;;;;4978428;28;20022;-67
2023/02/16 13:04:05;;;;;;;39.47;16.60;;;;;;;;;;4962799;28;19910;-69
2023/02/16 13:06:49;;;;;;;40.28;16.42;;;;;;;;;;4982392;28;20100;-68
2023/02/16 13:09:23;;;;;;;37.88;18.35;;;;;;;;;;4982536;28;20026;-67
2023/02/16 13:12:00;;;;;;;43.45;17.85;;;;;;;;;;4983067;28;20026;-67
2023/02/16 13:14:28;;;;;;;33.38;18.08;;;;;;;;;;4979664;28;20041;-69
2023/02/16 13:16:55;;;;;;;36.95;17.23;;;;;;;;;;4978507;28;20027;-68
2023/02/16 13:19:20;;;;;;;46.90;19.75;;;;;;;;;;4978143;28;20023;-68
2023/02/16 13:21:58;;;;;;;40.53;17.92;;;;;;;;;;4981538;28;20027;-68
2023/02/16 13:24:43;;;;;;;35.55;19.05;;;;;;;;;;4980081;28;20396;-68
2023/02/16 13:27:25;;;;;;;46.88;18.55;;;;;;;;;;4976159;28;20153;-68
2023/02/16 13:30:21;;;;;;;38.30;18.05;;;;;;;;;;4982493;28;20029;-67
2023/02/16 13:32:57;;;;;;;40.88;18.30;;;;;;;;;;4979910;28;20364;-67
2023/02/16 13:35:31;;;;;;;41.15;18.63;;;;;;;;;;4979244;28;20033;-67
2023/02/16 13:38:17;;;;;;;36.13;15.45;;;;;;;;;;4982969;28;20053;-68
2023/02/16 13:40:58;;;;;;;34.97;16.95;;;;;;;;;;4973997;28;20112;-67
2023/02/16 13:43:32;;;;;;;37.90;18.10;;;;;;;;;;4956805;28;20436;-68
2023/02/16 13:45:58;;;;;;;40.67;17.42;;;;;;;;;;4976365;28;20014;-68
2023/02/16 13:48:28;;;;;;;37.50;16.27;;;;;;;;;;4976985;28;20099;-68
2023/02/16 13:50:58;;;;;;;36.53;16.75;;;;;;;;;;4979493;28;20026;-68
2023/02/16 13:53:29;;;;;;;39.30;17.23;;;;;;;;;;4983721;28;20031;-69
2023/02/16 13:56:11;;;;;;;25.45;12.18;;;;;;;;;;4981873;28;20042;-67
2023/02/16 13:58:39;;;;;;;34.67;15.48;;;;;;;;;;4976989;28;20110;-68
2023/02/16 14:01:23;;;;;;;35.40;16.80;;;;;;;;;;4976972;28;20027;-68
2023/02/16 14:03:48;;;;;;;25.55;11.23;;;;;;;;;;4978843;28;20485;-68
2023/02/16 14:06:26;;;;;;;29.73;13.70;;;;;;;;;;4982646;28;20061;-68
2023/02/16 14:09:10;;;;;;;34.13;15.23;;;;;;;;;;4981542;28;20782;-69
2023/02/16 14:11:53;;;;;;;32.15;14.90;;;;;;;;;;4975203;28;20700;-67
2023/02/16 14:14:30;;;;;;;31.75;15.00;;;;;;;;;;4982057;28;20015;-67
2023/02/16 14:17:13;;;;;;;37.03;17.02;;;;;;;;;;4980290;28;20026;-67
2023/02/16 14:19:39;;;;;;;35.90;17.45;;;;;;;;;;4979725;28;20113;-69
2023/02/16 14:22:09;;;;;;;36.33;16.77;;;;;;;;;;4973334;28;20117;-68
2023/02/16 14:24:36;;;;;;;31.50;15.68;;;;;;;;;;4973489;28;20430;-68
2023/02/16 14:27:06;;;;;;;19.73;9.30;;;;;;;;;;4980634;28;20021;-68
2023/02/16 14:29:33;;;;;;;32.67;13.15;;;;;;;;;;4978753;28;20492;-68
2023/02/16 14:32:08;;;;;;;26.67;15.18;;;;;;;;;;4978450;28;20042;-67
2023/02/16 14:34:41;;;;;;;30.90;13.18;;;;;;;;;;4979441;28;20038;-67
2023/02/16 14:37:15;;;;;;;31.63;15.98;;;;;;;;;;4981142;28;20030;-67
2023/02/16 14:39:41;;;;;;;22.98;11.27;;;;;;;;;;4977889;28;20138;-67
2023/02/16 14:42:17;;;;;;;33.20;12.52;;;;;;;;;;4976213;28;20025;-68
2023/02/16 14:45:00;;;;;;;23.05;10.23;;;;;;;;;;4974210;28;20476;-67
2023/02/16 14:47:25;;;;;;;29.48;11.68;;;;;;;;;;4982122;28;20480;-68
2023/02/16 14:50:15;;;;;;;31.23;16.45;;;;;;;;;;4978328;28;20487;-67
2023/02/16 14:52:58;;;;;;;31.83;12.52;;;;;;;;;;4978531;28;20439;-68
2023/02/16 14:55:42;;;;;;;37.78;12.25;;;;;;;;;;4980648;28;20030;-68
2023/02/16 14:58:13;;;;;;;29.83;13.85;;;;;;;;;;4976096;28;20593;-67
2023/02/16 15:00:38;;;;;;;25.63;11.63;;;;;;;;;;4977500;28;20026;-68
2023/02/16 15:03:13;;;;;;;26.48;14.38;;;;;;;;;;4982865;28;20049;-69
2023/02/16 15:05:39;;;;;;;18.25;8.50;;;;;;;;;;4976142;28;20057;-68
2023/02/16 15:08:15;;;;;;;30.58;13.90;;;;;;;;;;4975467;28;20547;-69
2023/02/16 15:10:45;;;;;;;42.60;15.30;;;;;;;;;;4979281;28;20034;-68